Time;durP1;ratioP1;P1;durP2;ratioP2;P2;SDS_P1;SDS_P2;PMS_P1;PMS_P2;Temp;Humidity;BMP_temperature;BMP_pressure;BME280_temperature;BME280_humidity;BME280_pressure;Samples;Min_cycle;Max_cycle;Signal;HPM_P1;HPM_P2
2022/07/19 00:00:09;;;;;;;;;;;27.80;71.70;27.80;99608.00;;;;332979;29;83623;-84
2022/07/19 00:00:21;;;;;;;;;;;27.80;71.40;27.80;99605.00;;;;331803;29;94278;-84
2022/07/19 00:00:33;;;;;;;;;;;27.80;71.10;27.80;99603.00;;;;335385;29;83537;-85
2022/07/19 00:00:46;;;;;;;;;;;27.80;70.90;27.80;99604.00;;;;334677;29;93718;-84
2022/07/19 00:00:59;;;;;;;;;;;27.90;70.70;27.80;99603.00;;;;334082;29;83384;-84
2022/07/19 00:01:11;;;;;;;;;;;27.80;71.30;27.80;99601.00;;;;330899;29;92706;-84
2022/07/19 00:01:22;;;;;;;;;;;27.80;71.10;27.90;99611.00;;;;332879;29;83520;-84
2022/07/19 00:01:34;;;;;;;;;;;27.80;70.80;27.80;99603.00;;;;333904;29;96003;-84
2022/07/19 00:01:47;;;;;;;;;;;27.80;70.90;27.80;99602.00;;;;334008;29;85223;-84
2022/07/19 00:01:59;;;;;;;;;;;27.80;71.30;27.80;99603.00;;;;330765;29;95690;-84
2022/07/19 00:02:10;;;;;;;;;;;27.80;71.20;27.80;99603.00;;;;330140;29;82540;-84
2022/07/19 00:02:22;;;;;;;;;;;27.80;71.10;27.70;99598.00;;;;331895;29;96500;-84
2022/07/19 00:02:35;;;;;;;;;;;27.80;71.50;27.70;99602.00;;;;332868;29;83365;-84
2022/07/19 00:02:47;;;;;;;;;;;27.80;71.40;27.70;99612.00;;;;333406;29;94679;-84
2022/07/19 00:02:59;;;;;;;;;;;27.80;71.30;27.70;99606.00;;;;334100;29;82245;-84
2022/07/19 00:03:11;;;;;;;;;;;27.80;71.60;27.60;99600.00;;;;330352;29;94054;-84
2022/07/19 00:03:23;;;;;;;;;;;27.80;71.50;27.60;99600.00;;;;330365;29;82445;-84
2022/07/19 00:03:35;;;;;;;;;;;27.80;71.60;27.70;99599.00;;;;329528;29;94433;-85
2022/07/19 00:03:47;;;;;;;;;;;27.80;71.20;27.70;99606.00;;;;331620;29;82260;-84
2022/07/19 00:03:58;;;;;;;;;;;27.80;71.20;27.70;99610.00;;;;331367;29;94540;-84
2022/07/19 00:04:10;;;;;;;;;;;27.80;71.20;27.70;99599.00;;;;335501;29;82447;-84
2022/07/19 00:04:22;;;;;;;;;;;27.80;71.10;27.70;99605.00;;;;333175;29;96027;-84
2022/07/19 00:04:34;;;;;;;;;;;27.80;71.30;27.70;99605.00;;;;333747;29;83625;-84
2022/07/19 00:04:46;;;;;;;;;;;27.80;71.20;27.80;99606.00;;;;332462;29;94873;-84
2022/07/19 00:04:57;;;;;;;;;;;27.80;71.00;27.80;99607.00;;;;331600;29;83367;-84
2022/07/19 00:05:10;;;;;;;;;;;27.80;71.10;27.80;99612.00;;;;330865;29;93938;-84
2022/07/19 00:05:21;;;;;;;;;;;27.80;71.30;27.80;99605.00;;;;334191;29;83441;-84
2022/07/19 00:05:33;;;;;;;;;;;27.80;71.50;27.70;99601.00;;;;333101;29;94162;-84
2022/07/19 00:05:45;;;;;;;;;;;27.80;71.90;27.70;99609.00;;;;334093;29;83528;-84
2022/07/19 00:05:57;;;;;;;;;;;27.80;71.30;27.70;99607.00;;;;335741;28;94394;-84
2022/07/19 00:06:09;;;;;;;;;;;27.80;71.10;27.80;99609.00;;;;333102;29;83426;-84
2022/07/19 00:06:20;;;;;;;;;;;27.80;70.90;27.80;99600.00;;;;332892;29;95503;-84
2022/07/19 00:06:32;;;;;;;;;;;27.80;71.00;27.80;99599.00;;;;334079;29;83500;-84
2022/07/19 00:06:44;;;;;;;;;;;27.80;71.90;27.80;99606.00;;;;333462;29;94471;-84
2022/07/19 00:06:56;;;;;;;;;;;27.80;71.40;27.80;99612.00;;;;334063;29;82433;-84
2022/07/19 00:07:08;;;;;;;;;;;27.80;71.30;27.80;99608.00;;;;333477;29;93501;-84
2022/07/19 00:07:19;;;;;;;;;;;27.80;71.20;27.70;99612.00;;;;334092;29;83426;-84
2022/07/19 00:07:31;;;;;;;;;;;27.80;71.90;27.70;99608.00;;;;333055;29;94813;-84
2022/07/19 00:07:45;;;;;;;;;;;27.70;71.50;27.70;99606.00;;;;332508;29;83588;-84
2022/07/19 00:07:56;;;;;;;;;;;27.70;71.60;27.80;99604.00;;;;334791;29;92998;-84
2022/07/19 00:08:08;;;;;;;;;;;27.70;71.20;27.80;99607.00;;;;334196;29;82490;-84
2022/07/19 00:08:20;;;;;;;;;;;27.70;71.20;27.80;99608.00;;;;333306;29;94057;-84
2022/07/19 00:08:32;;;;;;;;;;;27.70;71.10;27.70;99610.00;;;;331435;29;82604;-84
2022/07/19 00:08:43;;;;;;;;;;;27.70;71.40;27.70;99607.00;;;;333177;29;94439;-85
2022/07/19 00:08:55;;;;;;;;;;;27.70;71.80;27.70;99611.00;;;;331958;29;83389;-83
2022/07/19 00:09:08;;;;;;;;;;;27.70;71.70;27.60;99605.00;;;;330843;29;93881;-84
2022/07/19 00:09:19;;;;;;;;;;;27.70;71.60;27.60;99602.00;;;;331732;29;83490;-85
2022/07/19 00:09:31;;;;;;;;;;;27.70;71.60;27.60;99597.00;;;;332111;29;94686;-84
2022/07/19 00:09:43;;;;;;;;;;;27.70;71.40;27.60;99598.00;;;;332854;29;83343;-84
2022/07/19 00:09:55;;;;;;;;;;;27.70;71.40;27.60;99600.00;;;;332079;29;94055;-84
2022/07/19 00:10:08;;;;;;;;;;;27.70;71.60;27.60;99603.00;;;;334130;29;83352;-84
2022/07/19 00:10:20;;;;;;;;;;;27.70;71.90;27.60;99598.00;;;;331977;29;93120;-84
2022/07/19 00:10:32;;;;;;;;;;;27.70;72.10;27.60;99598.00;;;;333199;29;82408;-84
2022/07/19 00:10:44;;;;;;;;;;;27.70;71.80;27.60;99592.00;;;;333490;29;94154;-84
2022/07/19 00:10:55;;;;;;;;;;;27.70;71.30;27.60;99604.00;;;;335373;29;83489;-84
2022/07/19 00:11:07;;;;;;;;;;;27.70;71.20;27.70;99599.00;;;;332165;29;93354;-85
2022/07/19 00:11:19;;;;;;;;;;;27.70;71.30;27.70;99600.00;;;;332828;29;83810;-84
2022/07/19 00:11:31;;;;;;;;;;;27.70;71.20;27.70;99601.00;;;;332067;29;95921;-85
2022/07/19 00:11:43;;;;;;;;;;;27.70;71.90;27.70;99603.00;;;;331483;29;83398;-85
2022/07/19 00:11:55;;;;;;;;;;;27.70;71.20;27.60;99599.00;;;;333429;29;93485;-84
2022/07/19 00:12:07;;;;;;;;;;;27.70;71.40;27.60;99597.00;;;;331735;29;83496;-84
2022/07/19 00:12:19;;;;;;;;;;;27.70;71.90;27.60;99607.00;;;;330780;29;94112;-84
2022/07/19 00:12:31;;;;;;;;;;;27.70;71.80;27.60;99609.00;;;;334183;29;82380;-84
2022/07/19 00:12:42;;;;;;;;;;;27.70;71.80;27.60;99603.00;;;;333405;29;93105;-84
2022/07/19 00:12:54;;;;;;;;;;;27.70;71.80;27.60;99599.00;;;;332843;29;83390;-84
2022/07/19 00:13:06;;;;;;;;;;;27.70;71.50;27.50;99598.00;;;;330879;29;92189;-84
2022/07/19 00:13:19;;;;;;;;;;;27.60;71.80;27.60;99597.00;;;;332555;29;83528;-84
2022/07/19 00:13:31;;;;;;;;;;;27.70;71.40;27.60;99595.00;;;;330567;29;94335;-83
2022/07/19 00:16:22;;;;;;;;;;;27.70;71.50;27.50;99603.00;;;;331577;29;95374;-86
2022/07/19 00:16:36;;;;;;;;;;;27.60;72.00;27.50;99603.00;;;;334272;29;82426;-85
2022/07/19 00:16:47;;;;;;;;;;;27.60;71.60;27.50;99595.00;;;;331844;29;93952;-85
2022/07/19 00:16:59;;;;;;;;;;;27.60;71.40;27.60;99598.00;;;;332884;29;83439;-86
2022/07/19 00:17:11;;;;;;;;;;;27.60;71.40;27.50;99601.00;;;;330112;29;94507;-85
2022/07/19 00:17:23;;;;;;;;;;;27.60;71.90;27.60;99596.00;;;;329998;29;83932;-85
2022/07/19 00:17:34;;;;;;;;;;;27.60;71.80;27.70;99604.00;;;;329429;29;94311;-86
2022/07/19 00:17:47;;;;;;;;;;;27.60;71.80;27.60;99598.00;;;;332789;29;83423;-85
2022/07/19 00:17:59;;;;;;;;;;;27.60;71.80;27.60;99597.00;;;;329519;29;97713;-86
2022/07/19 00:18:11;;;;;;;;;;;27.60;72.10;27.50;99598.00;;;;330127;29;83395;-85
2022/07/19 00:18:23;;;;;;;;;;;27.60;71.90;27.50;99600.00;;;;329520;29;94163;-85
2022/07/19 00:18:34;;;;;;;;;;;27.60;72.50;27.50;99593.00;;;;331579;29;82438;-85
2022/07/19 00:18:47;;;;;;;;;;;27.60;72.70;27.50;99597.00;;;;330926;29;93459;-85
2022/07/19 00:18:58;;;;;;;;;;;27.60;72.60;27.50;99599.00;;;;334077;29;83493;-86
2022/07/19 00:19:10;;;;;;;;;;;27.60;72.60;27.50;99603.00;;;;333390;29;94248;-85
2022/07/19 00:19:22;;;;;;;;;;;27.60;72.50;27.50;99597.00;;;;334136;29;83394;-85
2022/07/19 00:19:34;;;;;;;;;;;27.50;72.90;27.40;99599.00;;;;332067;29;94465;-85
2022/07/19 00:19:45;;;;;;;;;;;27.60;73.30;27.50;99597.00;;;;331503;29;82565;-85
2022/07/19 00:19:58;;;;;;;;;;;27.60;72.80;27.50;99599.00;;;;332106;29;94504;-85
2022/07/19 00:20:11;;;;;;;;;;;27.50;72.40;27.40;99598.00;;;;332798;29;82424;-85
2022/07/19 00:20:22;;;;;;;;;;;27.60;72.60;27.30;99597.00;;;;331355;29;94118;-85
2022/07/19 00:20:34;;;;;;;;;;;27.50;72.60;27.40;99600.00;;;;331935;29;82511;-85
2022/07/19 00:20:46;;;;;;;;;;;27.50;72.50;27.40;99600.00;;;;332128;29;93783;-85
2022/07/19 00:20:58;;;;;;;;;;;27.60;72.50;27.40;99598.00;;;;330857;29;83452;-85
2022/07/19 00:21:10;;;;;;;;;;;27.50;72.20;27.40;99602.00;;;;329190;29;94543;-85
2022/07/19 00:21:22;;;;;;;;;;;27.50;71.80;27.40;99602.00;;;;331500;29;83511;-85
2022/07/19 00:21:34;;;;;;;;;;;27.50;71.90;27.40;99602.00;;;;330670;29;94699;-85
2022/07/19 00:21:46;;;;;;;;;;;27.50;72.50;27.40;99610.00;;;;330274;29;83530;-85
2022/07/19 00:21:58;;;;;;;;;;;27.50;72.20;27.40;99604.00;;;;330877;29;93104;-85
2022/07/19 00:22:10;;;;;;;;;;;27.50;72.00;27.50;99605.00;;;;331501;29;83372;-85
2022/07/19 00:22:22;;;;;;;;;;;27.50;72.10;27.40;99601.00;;;;330765;29;94203;-85
2022/07/19 00:22:33;;;;;;;;;;;27.50;72.70;27.40;99603.00;;;;331636;29;82425;-85
2022/07/19 00:22:45;;;;;;;;;;;27.50;72.50;27.50;99599.00;;;;330802;29;93762;-85
2022/07/19 00:22:57;;;;;;;;;;;27.50;72.20;27.50;99599.00;;;;331536;29;83440;-85
2022/07/19 00:23:09;;;;;;;;;;;27.50;72.00;27.50;99595.00;;;;329527;29;94194;-85
2022/07/19 00:23:20;;;;;;;;;;;27.50;72.00;27.50;99599.00;;;;330792;29;83512;-86
2022/07/19 00:23:32;;;;;;;;;;;27.50;72.00;27.40;99598.00;;;;331326;29;94191;-86
2022/07/19 00:23:44;;;;;;;;;;;27.50;72.20;27.40;99600.00;;;;333119;29;82428;-85
2022/07/19 00:23:56;;;;;;;;;;;27.50;72.90;27.40;99599.00;;;;333121;29;94541;-85
2022/07/19 00:24:07;;;;;;;;;;;27.50;72.90;27.30;99601.00;;;;332641;29;83592;-85
2022/07/19 00:24:19;;;;;;;;;;;27.50;73.10;27.40;99600.00;;;;330740;29;94525;-85
2022/07/19 00:24:31;;;;;;;;;;;27.50;72.60;27.40;99602.00;;;;331625;29;82450;-85
2022/07/19 00:24:43;;;;;;;;;;;27.50;72.30;27.40;99605.00;;;;330730;29;93756;-85
2022/07/19 00:24:55;;;;;;;;;;;27.50;72.40;27.30;99603.00;;;;331462;29;83459;-85
2022/07/19 00:25:07;;;;;;;;;;;27.50;72.70;27.30;99602.00;;;;330808;29;94332;-85
2022/07/19 00:25:19;;;;;;;;;;;27.50;73.00;27.20;99595.00;;;;331474;29;83444;-86
2022/07/19 00:25:31;;;;;;;;;;;27.50;73.10;27.20;99604.00;;;;332062;29;94458;-85
2022/07/19 00:25:42;;;;;;;;;;;27.40;73.60;27.20;99602.00;;;;332797;29;83489;-85
2022/07/19 00:25:54;;;;;;;;;;;27.40;73.30;27.20;99601.00;;;;333383;29;94245;-85
2022/07/19 00:26:06;;;;;;;;;;;27.50;73.40;27.20;99605.00;;;;334029;29;83762;-85
2022/07/19 00:26:18;;;;;;;;;;;27.40;73.50;27.20;99607.00;;;;333293;29;94208;-85
2022/07/19 00:26:29;;;;;;;;;;;27.40;73.50;27.10;99596.00;;;;335409;29;83343;-85
2022/07/19 00:26:41;;;;;;;;;;;27.40;73.40;27.10;99604.00;;;;332127;29;93813;-85
2022/07/19 00:26:53;;;;;;;;;;;27.40;73.40;27.10;99601.00;;;;332776;29;83408;-85
2022/07/19 00:27:05;;;;;;;;;;;27.40;73.40;27.20;99598.00;;;;332128;29;94179;-85
2022/07/19 00:27:16;;;;;;;;;;;27.40;73.10;27.20;99601.00;;;;332813;29;83299;-85
2022/07/19 00:27:28;;;;;;;;;;;27.40;73.10;27.10;99597.00;;;;333247;29;97302;-85
2022/07/19 00:27:41;;;;;;;;;;;27.40;73.10;27.10;99593.00;;;;331603;29;82537;-85
2022/07/19 00:27:53;;;;;;;;;;;27.40;73.20;27.10;99601.00;;;;330494;29;94236;-85
2022/07/19 00:28:05;;;;;;;;;;;27.40;73.50;27.10;99597.00;;;;331562;29;82394;-85
2022/07/19 00:28:16;;;;;;;;;;;27.40;73.60;27.10;99599.00;;;;330765;29;94110;-85
2022/07/19 00:28:28;;;;;;;;;;;27.40;73.50;27.20;99601.00;;;;331540;29;82477;-85
2022/07/19 00:28:40;;;;;;;;;;;27.40;73.40;27.20;99597.00;;;;330889;29;93793;-85
2022/07/19 00:28:54;;;;;;;;;;;27.30;72.90;27.20;99599.00;;;;331463;29;83518;-85
2022/07/19 00:29:06;;;;;;;;;;;27.30;72.70;27.20;99601.00;;;;333243;29;94652;-85
2022/07/19 00:29:18;;;;;;;;;;;27.30;72.50;27.20;99598.00;;;;334157;29;83340;-85
2022/07/19 00:29:29;;;;;;;;;;;27.40;72.50;27.20;99595.00;;;;333247;29;94314;-85
2022/07/19 00:29:41;;;;;;;;;;;27.30;72.40;27.20;99606.00;;;;332910;29;83584;-85
2022/07/19 00:29:53;;;;;;;;;;;27.40;72.60;27.20;99596.00;;;;334150;28;94679;-85
2022/07/19 00:30:05;;;;;;;;;;;27.30;72.70;27.20;99602.00;;;;336590;28;83386;-85
2022/07/19 00:30:17;;;;;;;;;;;27.40;72.80;27.20;99603.00;;;;334605;29;95345;-85
2022/07/19 00:30:29;;;;;;;;;;;27.30;72.70;27.20;99601.00;;;;334077;29;83438;-84
2022/07/19 00:30:41;;;;;;;;;;;27.40;73.00;27.20;99605.00;;;;333413;29;93503;-85
2022/07/19 00:30:52;;;;;;;;;;;27.30;72.80;27.20;99601.00;;;;332548;29;82443;-85
2022/07/19 00:31:04;;;;;;;;;;;27.30;72.40;27.30;99592.00;;;;331451;29;94487;-85
2022/07/19 00:31:16;;;;;;;;;;;27.30;72.60;27.30;99596.00;;;;332876;29;83359;-85
2022/07/19 00:31:28;;;;;;;;;;;27.30;73.20;27.20;99601.00;;;;331988;29;94275;-85
2022/07/19 00:31:40;;;;;;;;;;;27.30;73.50;27.20;99596.00;;;;332611;29;83574;-85
2022/07/19 00:31:52;;;;;;;;;;;27.30;73.60;27.10;99597.00;;;;332021;29;94656;-85
2022/07/19 00:32:04;;;;;;;;;;;27.30;73.40;27.10;99594.00;;;;332853;29;82455;-85
2022/07/19 00:32:16;;;;;;;;;;;27.30;73.40;27.10;99595.00;;;;331989;29;94704;-85
2022/07/19 00:32:28;;;;;;;;;;;27.30;73.10;27.20;99597.00;;;;331544;29;83451;-85
2022/07/19 00:32:40;;;;;;;;;;;27.30;73.00;27.20;99594.00;;;;329559;29;93156;-85
2022/07/19 00:32:51;;;;;;;;;;;27.30;73.00;27.10;99599.00;;;;331450;29;83388;-85
2022/07/19 00:33:08;;;;;;;;;;;27.30;73.80;27.20;99604.00;;;;331977;29;94396;-85
2022/07/19 00:33:20;;;;;;;;;;;27.30;73.10;27.20;99598.00;;;;330245;29;82457;-85
2022/07/19 00:33:31;;;;;;;;;;;27.30;73.30;27.10;99593.00;;;;329165;29;94336;-85
2022/07/19 00:33:43;;;;;;;;;;;27.30;73.50;27.10;99594.00;;;;331372;29;82455;-85
2022/07/19 00:33:55;;;;;;;;;;;27.30;73.70;27.10;99593.00;;;;330003;29;97735;-85
2022/07/19 00:34:06;;;;;;;;;;;27.30;73.60;27.10;99597.00;;;;334081;29;82428;-85
2022/07/19 00:34:18;;;;;;;;;;;27.30;73.20;27.10;99595.00;;;;333213;29;94414;-85
2022/07/19 00:34:30;;;;;;;;;;;27.30;73.40;27.10;99594.00;;;;335358;29;83507;-85
2022/07/19 00:34:42;;;;;;;;;;;27.30;73.70;27.10;99600.00;;;;333355;29;93505;-84
2022/07/19 00:34:54;;;;;;;;;;;27.30;73.90;27.10;99600.00;;;;334020;29;84052;-85
2022/07/19 00:35:06;;;;;;;;;;;27.30;73.80;27.10;99594.00;;;;333146;29;94943;-85
2022/07/19 00:35:18;;;;;;;;;;;27.20;73.60;27.10;99599.00;;;;333999;29;83355;-85
2022/07/19 00:35:30;;;;;;;;;;;27.30;73.50;27.10;99587.00;;;;330687;29;94317;-85
2022/07/19 00:35:41;;;;;;;;;;;27.20;73.10;27.20;99595.00;;;;328873;29;83465;-85
2022/07/19 00:35:53;;;;;;;;;;;27.20;72.90;27.10;99595.00;;;;329386;29;96170;-85
2022/07/19 00:36:05;;;;;;;;;;;27.20;73.30;27.10;99600.00;;;;332426;29;83302;-85
2022/07/19 00:36:17;;;;;;;;;;;27.20;74.00;27.10;99592.00;;;;333200;29;94505;-85
2022/07/19 00:36:29;;;;;;;;;;;27.20;73.30;27.10;99599.00;;;;332788;29;82417;-85
2022/07/19 00:36:41;;;;;;;;;;;27.20;73.30;27.10;99595.00;;;;333379;29;93422;-85
2022/07/19 00:36:53;;;;;;;;;;;27.20;73.90;27.00;99599.00;;;;331374;29;83503;-85
2022/07/19 00:37:05;;;;;;;;;;;27.20;74.10;27.00;99590.00;;;;330736;29;94164;-85
2022/07/19 00:37:17;;;;;;;;;;;27.20;73.70;27.10;99607.00;;;;331500;29;83324;-85
2022/07/19 00:37:28;;;;;;;;;;;27.20;73.40;27.10;99591.00;;;;333287;29;93924;-85
2022/07/19 00:37:40;;;;;;;;;;;27.20;73.30;27.10;99594.00;;;;334001;29;83351;-85
2022/07/19 00:38:06;;;;;;;;;;;27.20;73.00;27.10;99597.00;;;;333373;29;93542;-85
2022/07/19 00:38:18;;;;;;;;;;;27.20;73.30;27.00;99589.00;;;;332673;29;82730;-85
2022/07/19 00:38:29;;;;;;;;;;;27.20;73.60;27.00;99592.00;;;;329338;29;97303;-85
2022/07/19 00:38:41;;;;;;;;;;;27.20;73.80;27.10;99593.00;;;;331276;29;83317;-85
2022/07/19 00:38:53;;;;;;;;;;;27.20;73.90;27.10;99596.00;;;;330719;29;93777;-85
2022/07/19 00:39:05;;;;;;;;;;;27.20;73.40;27.10;99594.00;;;;331467;29;83484;-85
2022/07/19 00:39:17;;;;;;;;;;;27.20;73.30;27.10;99597.00;;;;329474;29;94571;-85
2022/07/19 00:39:28;;;;;;;;;;;27.20;73.20;27.00;99599.00;;;;330225;29;82431;-86
2022/07/19 00:39:40;;;;;;;;;;;27.20;73.70;27.00;99594.00;;;;330736;29;94401;-85
2022/07/19 00:39:52;;;;;;;;;;;27.20;73.70;27.10;99603.00;;;;331571;29;83447;-85
2022/07/19 00:40:04;;;;;;;;;;;27.20;73.30;27.10;99601.00;;;;329516;29;94309;-85
2022/07/19 00:40:22;;;;;;;;;;;27.20;73.40;27.10;99589.00;;;;330171;29;83477;-85
2022/07/19 00:40:35;;;;;;;;;;;27.20;73.30;27.10;99594.00;;;;329542;29;94739;-85
2022/07/19 00:40:47;;;;;;;;;;;27.20;73.80;27.10;99604.00;;;;330004;29;83406;-85
2022/07/19 00:41:01;;;;;;;;;;;27.20;74.00;27.00;99597.00;;;;329454;29;93556;-85
2022/07/19 00:41:12;;;;;;;;;;;27.10;74.30;27.00;99595.00;;;;330505;29;82485;-85
2022/07/19 00:41:24;;;;;;;;;;;27.20;73.70;27.10;99596.00;;;;330772;29;94430;-85
2022/07/19 00:41:42;;;;;;;;;;;27.20;73.20;27.10;99591.00;;;;331670;29;83390;-85
2022/07/19 00:41:54;;;;;;;;;;;27.20;73.20;27.00;99594.00;;;;332103;29;93427;-85
2022/07/19 00:42:06;;;;;;;;;;;27.20;74.20;27.00;99593.00;;;;332813;29;84000;-86
2022/07/19 00:42:18;;;;;;;;;;;27.20;73.90;27.10;99595.00;;;;331979;29;94591;-85
2022/07/19 00:42:30;;;;;;;;;;;27.20;73.60;27.00;99600.00;;;;331582;29;83340;-85
2022/07/19 00:42:41;;;;;;;;;;;27.10;73.80;26.90;99593.00;;;;330806;29;94211;-85
2022/07/19 00:42:55;;;;;;;;;;;27.10;74.40;27.00;99595.00;;;;334077;29;83451;-85
2022/07/19 00:43:07;;;;;;;;;;;27.10;74.00;27.00;99595.00;;;;333349;29;93721;-85
2022/07/19 00:43:19;;;;;;;;;;;27.10;74.10;26.90;99595.00;;;;334114;29;83423;-85
2022/07/19 00:43:31;;;;;;;;;;;27.10;74.00;27.00;99590.00;;;;333331;29;94209;-85
2022/07/19 00:43:43;;;;;;;;;;;27.10;73.60;27.10;99592.00;;;;332535;29;83361;-85
2022/07/19 00:43:56;;;;;;;;;;;27.10;73.50;27.00;99590.00;;;;333270;29;94925;-85
2022/07/19 00:44:09;;;;;;;;;;;27.10;74.00;27.00;99597.00;;;;335292;29;83425;-85
2022/07/19 00:44:21;;;;;;;;;;;27.10;74.40;27.00;99593.00;;;;334529;29;95916;-86
2022/07/19 00:44:33;;;;;;;;;;;27.10;74.00;27.10;99597.00;;;;336750;28;82415;-85
2022/07/19 00:44:44;;;;;;;;;;;27.10;73.50;27.00;99596.00;;;;334626;29;94196;-85
2022/07/19 00:44:56;;;;;;;;;;;27.10;73.50;26.90;99595.00;;;;335299;29;83068;-86
2022/07/19 00:45:09;;;;;;;;;;;27.10;73.80;26.90;99596.00;;;;335937;28;93516;-85
2022/07/19 00:45:21;;;;;;;;;;;27.10;74.00;27.00;99599.00;;;;336615;28;82538;-85
2022/07/19 00:45:33;;;;;;;;;;;27.10;73.60;27.00;99597.00;;;;335792;28;97816;-85
2022/07/19 00:45:45;;;;;;;;;;;27.10;73.90;26.90;99601.00;;;;335415;29;82497;-85
2022/07/19 00:45:57;;;;;;;;;;;27.10;74.10;26.80;99603.00;;;;334257;29;97259;-85
2022/07/19 00:46:16;;;;;;;;;;;27.10;74.50;26.90;99598.00;;;;335296;29;83412;-85
2022/07/19 00:46:27;;;;;;;;;;;27.10;74.80;26.90;99601.00;;;;335926;28;93512;-85
2022/07/19 00:46:39;;;;;;;;;;;27.10;74.50;26.90;99600.00;;;;336629;28;83593;-85
2022/07/19 00:46:51;;;;;;;;;;;27.10;73.90;26.90;99590.00;;;;334536;29;97208;-86
2022/07/19 00:47:03;;;;;;;;;;;27.10;73.90;26.90;99600.00;;;;335431;29;83258;-85
2022/07/19 00:47:15;;;;;;;;;;;27.10;74.20;27.00;99597.00;;;;335938;28;93104;-85
2022/07/19 00:47:26;;;;;;;;;;;27.10;73.80;27.00;99591.00;;;;336627;28;83399;-85
2022/07/19 00:47:38;;;;;;;;;;;27.10;73.60;26.90;99593.00;;;;335094;28;96390;-85
2022/07/19 00:47:50;;;;;;;;;;;27.00;74.10;26.90;99599.00;;;;334137;29;83345;-85
2022/07/19 00:48:02;;;;;;;;;;;27.10;74.40;26.90;99601.00;;;;333382;29;93441;-85
2022/07/19 00:48:14;;;;;;;;;;;27.00;74.40;26.90;99594.00;;;;330202;29;83386;-85
2022/07/19 00:48:26;;;;;;;;;;;27.10;74.60;26.80;99593.00;;;;329517;29;94695;-86
2022/07/19 00:48:41;;;;;;;;;;;27.10;75.00;26.90;99596.00;;;;330268;29;83134;-86
2022/07/19 00:48:52;;;;;;;;;;;27.00;74.50;26.90;99597.00;;;;329384;29;94647;-85
2022/07/19 00:49:04;;;;;;;;;;;27.00;74.80;26.90;99604.00;;;;332350;29;83468;-85
2022/07/19 00:49:16;;;;;;;;;;;27.00;74.50;26.80;99603.00;;;;332126;29;93481;-85
2022/07/19 00:49:28;;;;;;;;;;;27.00;74.90;26.80;99592.00;;;;332813;29;83387;-85
2022/07/19 00:49:40;;;;;;;;;;;27.00;74.40;26.70;99599.00;;;;331797;29;93936;-85
2022/07/19 00:49:51;;;;;;;;;;;27.00;74.50;26.80;99594.00;;;;332809;29;83378;-85
2022/07/19 00:50:03;;;;;;;;;;;27.00;74.70;26.70;99593.00;;;;332055;29;94150;-85
2022/07/19 00:50:15;;;;;;;;;;;27.00;74.70;26.70;99596.00;;;;333948;29;82491;-85
2022/07/19 00:50:28;;;;;;;;;;;27.00;74.70;26.80;99593.00;;;;332044;29;94143;-85
2022/07/19 00:50:40;;;;;;;;;;;27.00;74.80;26.80;99598.00;;;;334099;29;82497;-85
2022/07/19 00:50:52;;;;;;;;;;;27.00;74.40;26.80;99590.00;;;;333262;29;94698;-85
2022/07/19 00:51:04;;;;;;;;;;;27.00;74.60;26.80;99596.00;;;;332738;29;83466;-85
2022/07/19 00:51:16;;;;;;;;;;;27.00;74.20;26.80;99595.00;;;;334278;28;92749;-85
2022/07/19 00:51:28;;;;;;;;;;;27.00;73.90;26.80;99597.00;;;;335224;29;83550;-85
2022/07/19 00:51:40;;;;;;;;;;;27.00;74.10;26.80;99593.00;;;;334589;29;93633;-85
2022/07/19 00:51:52;;;;;;;;;;;27.00;74.40;26.80;99602.00;;;;335332;29;83468;-85
2022/07/19 00:52:04;;;;;;;;;;;27.00;74.40;26.80;99602.00;;;;334631;29;94034;-85
2022/07/19 00:52:17;;;;;;;;;;;27.00;74.60;26.90;99598.00;;;;335227;29;83497;-85
2022/07/19 00:52:28;;;;;;;;;;;27.00;74.00;26.90;99594.00;;;;334607;29;95087;-85
2022/07/19 00:52:42;;;;;;;;;;;27.00;73.80;26.90;99595.00;;;;332837;29;83278;-85
2022/07/19 00:53:02;;;;;;;;;;;27.00;74.10;26.90;99601.00;;;;331794;29;94153;-85
2022/07/19 00:53:14;;;;;;;;;;;27.00;74.30;26.80;99590.00;;;;331523;29;83448;-86
2022/07/19 00:53:25;;;;;;;;;;;26.90;74.70;26.90;99590.00;;;;330757;29;95418;-85
2022/07/19 00:53:38;;;;;;;;;;;27.00;74.20;26.90;99597.00;;;;332807;29;82389;-84
2022/07/19 00:53:49;;;;;;;;;;;27.00;74.90;26.90;99592.00;;;;332009;29;94160;-85
2022/07/19 00:54:02;;;;;;;;;;;27.00;74.60;26.90;99587.00;;;;333911;29;83680;-85
2022/07/19 00:54:14;;;;;;;;;;;27.00;74.40;26.90;99588.00;;;;331847;29;96083;-85
2022/07/19 00:54:26;;;;;;;;;;;27.00;74.40;26.90;99591.00;;;;332737;29;82560;-85
2022/07/19 00:54:37;;;;;;;;;;;27.00;74.00;26.90;99598.00;;;;330225;29;94313;-85
2022/07/19 00:54:49;;;;;;;;;;;27.00;74.20;26.90;99598.00;;;;328947;29;83494;-85
2022/07/19 00:55:01;;;;;;;;;;;27.00;74.10;26.90;99593.00;;;;330491;29;94320;-86
2022/07/19 00:55:13;;;;;;;;;;;26.90;74.00;26.90;99586.00;;;;330246;29;83475;-85
2022/07/19 00:55:25;;;;;;;;;;;26.90;74.50;26.90;99596.00;;;;330841;29;93946;-85
2022/07/19 00:55:38;;;;;;;;;;;26.90;74.20;26.90;99592.00;;;;331476;29;83472;-85
2022/07/19 00:55:50;;;;;;;;;;;26.90;74.40;26.80;99592.00;;;;330761;29;94269;-84
2022/07/19 00:56:03;;;;;;;;;;;27.00;74.60;26.80;99600.00;;;;331516;29;83353;-85
2022/07/19 00:56:15;;;;;;;;;;;26.90;74.90;26.80;99594.00;;;;333128;29;96670;-85
2022/07/19 00:56:27;;;;;;;;;;;27.00;74.80;26.80;99594.00;;;;331518;29;82533;-85
2022/07/19 00:56:38;;;;;;;;;;;27.00;74.60;26.80;99588.00;;;;330710;29;97151;-85
2022/07/19 00:56:50;;;;;;;;;;;27.00;74.50;26.90;99595.00;;;;334031;29;82532;-85
2022/07/19 00:57:03;;;;;;;;;;;27.00;74.40;26.90;99593.00;;;;331987;29;94222;-85
2022/07/19 00:57:14;;;;;;;;;;;27.00;74.40;26.90;99592.00;;;;332757;29;83466;-85
2022/07/19 00:57:26;;;;;;;;;;;26.90;74.50;26.90;99590.00;;;;332116;29;93592;-85
2022/07/19 00:57:38;;;;;;;;;;;26.90;74.40;26.90;99584.00;;;;331461;29;83350;-85
2022/07/19 00:57:50;;;;;;;;;;;26.90;74.60;27.00;99592.00;;;;332047;29;94160;-85
2022/07/19 00:58:02;;;;;;;;;;;27.00;74.50;27.00;99587.00;;;;331314;29;83329;-85
2022/07/19 00:58:14;;;;;;;;;;;27.00;74.30;27.00;99587.00;;;;330604;29;94162;-85
2022/07/19 00:58:25;;;;;;;;;;;26.90;74.20;26.90;99599.00;;;;331411;29;83535;-85
2022/07/19 00:58:37;;;;;;;;;;;26.90;74.40;26.90;99589.00;;;;330810;29;94265;-85
2022/07/19 00:58:49;;;;;;;;;;;27.00;74.90;26.90;99590.00;;;;331464;29;82494;-85
2022/07/19 00:59:02;;;;;;;;;;;27.00;75.10;26.80;99591.00;;;;333297;29;94500;-85
2022/07/19 00:59:14;;;;;;;;;;;26.90;74.90;26.80;99587.00;;;;332776;29;82498;-85
2022/07/19 00:59:26;;;;;;;;;;;26.90;75.00;26.70;99586.00;;;;332095;29;93109;-85
2022/07/19 00:59:38;;;;;;;;;;;26.90;75.20;26.80;99589.00;;;;334069;29;83424;-85
2022/07/19 00:59:52;;;;;;;;;;;26.90;75.70;26.80;99589.00;;;;333213;29;93816;-85
2022/07/19 01:00:06;;;;;;;;;;;26.90;74.90;26.80;99587.00;;;;332817;29;83349;-85
2022/07/19 01:00:18;;;;;;;;;;;26.90;74.20;26.90;99589.00;;;;329383;29;96006;-85
2022/07/19 01:00:31;;;;;;;;;;;26.90;74.00;26.90;99593.00;;;;330205;29;83353;-85
2022/07/19 01:00:43;;;;;;;;;;;26.90;74.30;27.00;99589.00;;;;329580;29;93272;-85
2022/07/19 01:00:55;;;;;;;;;;;26.90;74.50;27.10;99592.00;;;;332688;29;83654;-85
2022/07/19 01:01:07;;;;;;;;;;;26.90;74.80;27.00;99586.00;;;;332006;29;94444;-85
2022/07/19 01:01:19;;;;;;;;;;;26.90;74.70;26.90;99587.00;;;;332780;29;83442;-85
2022/07/19 01:01:31;;;;;;;;;;;27.00;74.90;26.90;99586.00;;;;332025;29;93952;-85
2022/07/19 01:01:44;;;;;;;;;;;26.90;74.80;26.90;99587.00;;;;333987;29;82397;-85
2022/07/19 01:01:55;;;;;;;;;;;27.00;74.60;26.90;99590.00;;;;333111;29;97595;-85
2022/07/19 01:02:07;;;;;;;;;;;26.90;74.30;26.90;99583.00;;;;334046;29;83365;-85
2022/07/19 01:02:19;;;;;;;;;;;27.00;74.70;26.90;99588.00;;;;333222;29;94368;-85
2022/07/19 01:02:31;;;;;;;;;;;27.00;74.50;26.90;99579.00;;;;335418;29;83402;-85
2022/07/19 01:02:43;;;;;;;;;;;27.00;74.50;26.90;99596.00;;;;334666;29;93266;-85